createdAt,value
2023-01-31T00:00:00.596Z,100461.30
2023-01-31T00:02:31.447Z,100460.48
2023-01-31T00:05:00.770Z,100461.14
2023-01-31T00:07:29.299Z,100463.34
2023-01-31T00:09:57.693Z,100464.32
2023-01-31T00:12:26.151Z,100462.07
2023-01-31T00:14:54.452Z,100463.91
2023-01-31T00:17:22.737Z,100467.41
2023-01-31T00:19:50.917Z,100462.00
2023-01-31T00:22:19.103Z,100456.60
2023-01-31T00:24:47.273Z,100459.66
2023-01-31T00:27:15.468Z,100455.35
2023-01-31T00:29:43.837Z,100452.69
2023-01-31T00:32:12.296Z,100448.77
2023-01-31T00:34:40.507Z,100450.73
2023-01-31T00:37:08.694Z,100447.34
2023-01-31T00:39:37.029Z,100446.80
2023-01-31T00:42:05.354Z,100442.17
2023-01-31T00:44:34.552Z,100440.91
2023-01-31T00:47:03.656Z,100446.63
2023-01-31T00:49:32.555Z,100443.43
2023-01-31T00:52:00.740Z,100447.14
2023-01-31T00:54:29.221Z,100448.55
2023-01-31T00:56:58.109Z,100450.31
2023-01-31T00:59:26.296Z,100449.52
2023-01-31T01:01:55.639Z,100446.64
2023-01-31T01:04:25.210Z,100445.88
2023-01-31T01:06:54.005Z,100443.61
2023-01-31T01:09:23.106Z,100442.19
2023-01-31T01:11:51.863Z,100441.64
2023-01-31T01:14:20.491Z,100440.04
2023-01-31T01:16:49.079Z,100442.25
2023-01-31T01:19:19.967Z,100444.52
2023-01-31T01:21:49.124Z,100442.75
2023-01-31T01:24:19.679Z,100437.89
2023-01-31T01:26:49.001Z,100434.68
2023-01-31T01:29:18.063Z,100434.73
2023-01-31T01:31:47.155Z,100433.94
2023-01-31T01:34:16.966Z,100429.66
2023-01-31T01:36:47.930Z,100430.05
2023-01-31T01:39:18.317Z,100427.23
2023-01-31T01:41:47.212Z,100423.61
2023-01-31T01:44:43.468Z,100417.40
2023-01-31T01:47:34.470Z,100414.86
2023-01-31T01:50:14.117Z,100409.42
2023-01-31T01:52:57.959Z,100411.95
2023-01-31T01:55:33.599Z,100412.40
2023-01-31T01:58:12.213Z,100407.09
2023-01-31T02:00:40.616Z,100405.83
2023-01-31T02:03:09.419Z,100405.34
2023-01-31T02:05:45.748Z,100406.67
2023-01-31T02:08:17.835Z,100400.77
2023-01-31T02:10:55.834Z,100402.46
2023-01-31T02:13:26.048Z,100403.20
2023-01-31T02:15:55.690Z,100399.47
2023-01-31T02:18:26.724Z,100397.98
2023-01-31T02:21:32.577Z,100396.84
2023-01-31T02:24:30.818Z,100400.08
2023-01-31T02:27:10.971Z,100403.39
2023-01-31T02:30:02.280Z,100404.12
2023-01-31T02:33:02.187Z,100403.48
2023-01-31T02:35:52.708Z,100400.92
2023-01-31T02:38:51.660Z,100395.80
2023-01-31T02:41:55.247Z,100393.98
2023-01-31T02:45:02.110Z,100390.81
2023-01-31T02:47:57.913Z,100401.73
2023-01-31T02:50:37.988Z,100402.56
2023-01-31T02:53:17.808Z,100407.05
2023-01-31T02:56:20.644Z,100410.52
2023-01-31T02:59:10.763Z,100404.80
2023-01-31T03:01:46.947Z,100407.42
2023-01-31T03:04:15.957Z,100411.86
2023-01-31T03:06:55.073Z,100411.55
2023-01-31T03:09:50.144Z,100406.03
2023-01-31T03:12:27.537Z,100412.14
2023-01-31T03:15:05.333Z,100411.13
2023-01-31T03:17:42.927Z,100409.53
2023-01-31T03:20:13.801Z,100407.11
2023-01-31T03:22:57.787Z,100409.06
2023-01-31T03:25:29.804Z,100402.89
2023-01-31T03:28:04.707Z,100409.65
2023-01-31T03:30:40.380Z,100412.20
2023-01-31T03:33:24.948Z,100417.24
2023-01-31T03:35:58.324Z,100412.25
2023-01-31T03:38:34.388Z,100410.48
2023-01-31T03:41:11.454Z,100413.14
2023-01-31T03:43:51.249Z,100409.59
2023-01-31T03:46:25.054Z,100413.58
2023-01-31T03:48:55.031Z,100412.35
2023-01-31T03:51:27.608Z,100416.55
2023-01-31T03:54:04.045Z,100422.25
2023-01-31T03:56:47.921Z,100420.60
2023-01-31T03:59:22.878Z,100419.77
2023-01-31T04:01:56.179Z,100416.64
2023-01-31T04:04:42.230Z,100411.02
2023-01-31T04:07:11.233Z,100414.64
2023-01-31T04:09:40.126Z,100419.26
2023-01-31T04:12:11.970Z,100414.30
2023-01-31T04:14:40.702Z,100409.96
2023-01-31T04:17:08.976Z,100413.85
2023-01-31T04:19:37.351Z,100410.91
2023-01-31T04:22:05.736Z,100412.35
2023-01-31T04:24:34.488Z,100408.16
2023-01-31T04:27:02.915Z,100409.73
2023-01-31T04:29:31.906Z,100415.30
2023-01-31T04:32:00.726Z,100414.81
2023-01-31T04:34:29.199Z,100421.56
2023-01-31T04:36:57.471Z,100418.74
2023-01-31T04:39:25.670Z,100424.06
2023-01-31T04:41:53.945Z,100423.15
2023-01-31T04:44:22.628Z,100428.83
2023-01-31T04:46:50.841Z,100434.66
2023-01-31T04:49:19.305Z,100431.14
2023-01-31T04:51:47.675Z,100430.80
2023-01-31T04:54:16.778Z,100430.77
2023-01-31T04:56:45.160Z,100434.99
2023-01-31T04:59:13.747Z,100436.02
2023-01-31T05:01:42.349Z,100441.34
2023-01-31T05:04:11.234Z,100441.81
2023-01-31T05:06:39.942Z,100449.19
2023-01-31T05:09:08.353Z,100452.86
2023-01-31T05:11:36.694Z,100455.96
2023-01-31T05:14:05.495Z,100460.02
2023-01-31T05:16:33.974Z,100463.34
2023-01-31T05:19:02.259Z,100467.92
2023-01-31T05:21:31.326Z,100463.37
2023-01-31T05:23:59.644Z,100464.95
2023-01-31T05:26:27.944Z,100464.77
2023-01-31T05:28:56.409Z,100469.04
2023-01-31T05:31:25.257Z,100471.51
2023-01-31T05:33:53.751Z,100469.96
2023-01-31T05:36:21.873Z,100470.22
2023-01-31T05:38:50.768Z,100468.48
2023-01-31T05:41:19.159Z,100468.91
2023-01-31T05:43:47.548Z,100471.63
2023-01-31T05:46:16.029Z,100475.13
2023-01-31T05:48:44.417Z,100470.70
2023-01-31T05:51:12.688Z,100475.55
2023-01-31T05:53:40.867Z,100476.41
2023-01-31T05:56:09.353Z,100480.33
2023-01-31T05:58:37.841Z,100479.89
2023-01-31T06:01:06.405Z,100484.43
2023-01-31T06:03:35.336Z,100485.56
2023-01-31T06:06:05.348Z,100487.74
2023-01-31T06:08:33.635Z,100494.45
2023-01-31T06:11:04.939Z,100496.75
2023-01-31T06:13:33.581Z,100494.34
2023-01-31T06:16:02.270Z,100498.71
2023-01-31T06:18:31.914Z,100494.03
2023-01-31T06:21:00.261Z,100496.45
2023-01-31T06:23:28.755Z,100496.34
2023-01-31T06:25:57.439Z,100502.80
2023-01-31T06:28:26.344Z,100503.21
2023-01-31T06:30:56.760Z,100502.27
2023-01-31T06:33:42.209Z,100497.68
2023-01-31T06:36:12.888Z,100502.59
2023-01-31T06:38:41.164Z,100511.23
2023-01-31T06:41:09.545Z,100507.46
2023-01-31T06:43:37.827Z,100514.20
2023-01-31T06:46:06.117Z,100514.14
2023-01-31T06:48:34.389Z,100515.74
2023-01-31T06:51:03.138Z,100517.29
2023-01-31T06:53:31.517Z,100520.54
2023-01-31T06:55:59.776Z,100527.95
2023-01-31T06:58:28.750Z,100533.88
2023-01-31T07:00:58.929Z,100539.20
2023-01-31T07:03:27.354Z,100540.75
2023-01-31T07:05:56.334Z,100540.38
2023-01-31T07:08:24.746Z,100542.02
2023-01-31T07:10:53.499Z,100544.67
2023-01-31T07:13:22.531Z,100546.02
2023-01-31T07:15:51.069Z,100550.35
2023-01-31T07:18:19.193Z,100558.16
2023-01-31T07:20:47.698Z,100555.30
2023-01-31T07:23:16.376Z,100555.13
2023-01-31T07:25:45.175Z,100559.52
2023-01-31T07:28:13.867Z,100561.88
2023-01-31T07:30:44.159Z,100561.45
2023-01-31T07:33:12.582Z,100564.43
2023-01-31T07:35:43.381Z,100565.13
2023-01-31T07:38:11.692Z,100567.89
2023-01-31T07:40:40.509Z,100576.33
2023-01-31T07:43:08.884Z,100576.37
2023-01-31T07:45:39.774Z,100576.77
2023-01-31T07:48:08.410Z,100573.05
2023-01-31T07:50:36.585Z,100569.81
2023-01-31T07:53:04.973Z,100580.66
2023-01-31T07:55:33.355Z,100584.61
2023-01-31T07:58:01.654Z,100583.30
2023-01-31T08:00:48.815Z,100582.23
2023-01-31T08:03:35.345Z,100586.34
2023-01-31T08:06:12.596Z,100586.43
2023-01-31T08:08:42.624Z,100586.67
2023-01-31T08:11:11.151Z,100590.27
2023-01-31T08:13:40.061Z,100596.23
2023-01-31T08:16:10.240Z,100597.91
2023-01-31T08:18:39.170Z,100601.83
2023-01-31T08:21:08.180Z,100603.00
2023-01-31T08:23:38.399Z,100608.11
2023-01-31T08:26:18.712Z,100612.70
2023-01-31T08:28:50.000Z,100623.80
2023-01-31T08:31:21.235Z,100628.82
2023-01-31T08:33:53.147Z,100633.98
2023-01-31T08:36:27.678Z,100631.39
2023-01-31T08:38:56.318Z,100627.88
2023-01-31T08:41:27.031Z,100633.41
2023-01-31T08:43:58.494Z,100636.18
2023-01-31T08:46:31.531Z,100635.66
2023-01-31T08:49:02.352Z,100642.48
2023-01-31T08:51:31.516Z,100642.54
2023-01-31T08:53:59.728Z,100638.39
2023-01-31T08:56:28.887Z,100643.97
2023-01-31T08:58:58.179Z,100648.73
2023-01-31T09:01:26.791Z,100649.50
2023-01-31T09:03:57.452Z,100652.20
2023-01-31T09:06:27.668Z,100653.81
2023-01-31T09:08:57.676Z,100656.52
2023-01-31T09:11:30.585Z,100655.54
2023-01-31T09:13:59.596Z,100657.59
2023-01-31T09:16:28.863Z,100658.58
2023-01-31T09:18:57.316Z,100655.65
2023-01-31T09:21:26.191Z,100661.04
2023-01-31T09:23:58.256Z,100663.73
2023-01-31T09:26:26.996Z,100662.17
2023-01-31T09:28:56.331Z,100662.98
2023-01-31T09:31:25.124Z,100657.36
2023-01-31T09:33:54.965Z,100655.39
2023-01-31T09:36:24.989Z,100653.81
2023-01-31T09:38:57.188Z,100654.86
2023-01-31T09:41:29.812Z,100653.89
2023-01-31T09:44:10.911Z,100652.40
2023-01-31T09:46:48.553Z,100656.40
2023-01-31T09:49:24.063Z,100650.31
2023-01-31T09:51:58.069Z,100648.95
2023-01-31T09:54:32.059Z,100648.16
2023-01-31T09:57:02.919Z,100646.92
2023-01-31T09:59:55.193Z,100643.61
2023-01-31T10:02:36.537Z,100643.44
2023-01-31T10:05:30.726Z,100642.45
2023-01-31T10:08:09.627Z,100643.96
2023-01-31T10:10:51.318Z,100643.08
2023-01-31T10:13:37.053Z,100646.45
2023-01-31T10:16:17.359Z,100650.83
2023-01-31T10:18:50.991Z,100646.42
2023-01-31T10:21:23.102Z,100646.56
2023-01-31T10:23:58.689Z,100638.86
2023-01-31T10:26:33.823Z,100637.85
2023-01-31T10:29:29.564Z,100632.48
2023-01-31T10:32:12.729Z,100628.70
2023-01-31T10:35:16.123Z,100627.36
2023-01-31T10:37:52.880Z,100626.44
2023-01-31T10:40:42.062Z,100627.34
2023-01-31T10:43:32.225Z,100619.48
2023-01-31T10:46:02.234Z,100619.36
2023-01-31T10:48:30.753Z,100622.25
2023-01-31T10:51:13.980Z,100618.90
2023-01-31T10:53:45.124Z,100617.77
2023-01-31T10:56:29.374Z,100620.02
2023-01-31T10:58:59.097Z,100613.38
2023-01-31T11:01:28.657Z,100615.11
2023-01-31T11:03:57.557Z,100615.18
2023-01-31T11:06:25.874Z,100612.73
2023-01-31T11:08:59.179Z,100611.41
2023-01-31T11:11:29.900Z,100611.10
2023-01-31T11:13:58.294Z,100612.33
2023-01-31T11:16:35.726Z,100618.02
2023-01-31T11:19:35.999Z,100613.00
2023-01-31T11:22:05.366Z,100618.47
2023-01-31T11:24:37.781Z,100618.52
2023-01-31T11:27:10.559Z,100616.48
2023-01-31T11:29:44.471Z,100616.36
2023-01-31T11:32:18.116Z,100619.73
2023-01-31T11:35:05.808Z,100622.88
2023-01-31T11:37:35.063Z,100620.30
2023-01-31T11:40:15.472Z,100623.31
2023-01-31T11:42:55.329Z,100623.19
2023-01-31T11:45:28.179Z,100625.12
2023-01-31T11:47:59.872Z,100628.08
2023-01-31T11:50:40.645Z,100627.60
2023-01-31T11:53:15.060Z,100626.96
2023-01-31T11:55:44.726Z,100626.45
2023-01-31T11:58:22.561Z,100624.06
2023-01-31T12:00:58.629Z,100621.33
2023-01-31T12:03:28.503Z,100621.19
2023-01-31T12:06:09.381Z,100624.33
2023-01-31T12:08:42.486Z,100617.34
2023-01-31T12:11:27.567Z,100615.45
2023-01-31T12:14:17.342Z,100620.68
2023-01-31T12:16:48.557Z,100623.10
2023-01-31T12:19:39.381Z,100621.83
2023-01-31T12:22:10.945Z,100624.01
2023-01-31T12:25:03.590Z,100624.98
2023-01-31T12:28:09.722Z,100628.35
2023-01-31T12:31:18.321Z,100630.13
2023-01-31T12:33:57.043Z,100630.09
2023-01-31T12:36:43.130Z,100633.32
2023-01-31T12:39:37.615Z,100635.30
2023-01-31T12:42:24.724Z,100637.88
2023-01-31T12:45:26.622Z,100637.98
2023-01-31T12:48:10.465Z,100638.42
2023-01-31T12:51:26.894Z,100635.06
2023-01-31T12:54:15.245Z,100640.92
2023-01-31T12:56:47.400Z,100639.59
2023-01-31T12:59:25.097Z,100642.82
2023-01-31T13:02:22.661Z,100639.48
2023-01-31T13:05:21.132Z,100644.82
2023-01-31T13:08:02.190Z,100640.34
2023-01-31T13:10:35.588Z,100635.76
2023-01-31T13:13:10.329Z,100636.36
2023-01-31T13:15:50.539Z,100639.45
2023-01-31T13:18:20.597Z,100638.91
2023-01-31T13:20:57.432Z,100637.64
2023-01-31T13:23:31.853Z,100633.79
2023-01-31T13:26:09.810Z,100632.97
2023-01-31T13:28:44.845Z,100642.21
2023-01-31T13:31:23.467Z,100641.84
2023-01-31T13:34:00.457Z,100642.20
2023-01-31T13:36:48.165Z,100640.48
2023-01-31T13:39:21.866Z,100643.61
2023-01-31T13:41:50.243Z,100654.10
2023-01-31T13:44:20.888Z,100650.73
2023-01-31T13:47:01.243Z,100651.33
2023-01-31T13:49:29.529Z,100645.72
2023-01-31T13:52:00.772Z,100649.64
2023-01-31T13:54:35.909Z,100645.55
2023-01-31T13:57:05.753Z,100649.50
2023-01-31T13:59:40.684Z,100649.55
2023-01-31T14:02:19.891Z,100650.15
2023-01-31T14:04:48.564Z,100650.36
2023-01-31T14:07:22.128Z,100653.14
2023-01-31T14:09:50.366Z,100652.10
2023-01-31T14:12:21.001Z,100655.98
2023-01-31T14:14:55.197Z,100655.44
2023-01-31T14:17:23.815Z,100656.13
2023-01-31T14:19:58.251Z,100658.58
2023-01-31T14:22:41.569Z,100663.90
2023-01-31T14:25:09.734Z,100663.00
2023-01-31T14:27:52.255Z,100660.41
2023-01-31T14:30:26.685Z,100665.63
2023-01-31T14:33:17.146Z,100671.77
2023-01-31T14:36:02.933Z,100674.50
2023-01-31T14:38:45.555Z,100678.08
2023-01-31T14:41:22.116Z,100679.27
2023-01-31T14:43:53.157Z,100682.32
2023-01-31T14:46:52.554Z,100686.77
2023-01-31T14:49:26.891Z,100687.78
2023-01-31T14:52:18.698Z,100693.80
2023-01-31T14:55:06.004Z,100700.52
2023-01-31T14:57:45.449Z,100717.20
2023-01-31T15:00:14.562Z,100733.14
2023-01-31T15:03:01.060Z,100744.65
2023-01-31T15:05:32.597Z,100756.98
2023-01-31T15:08:16.135Z,100759.61
2023-01-31T15:10:58.329Z,100752.36
2023-01-31T15:13:38.276Z,100756.93
2023-01-31T15:16:09.282Z,100753.67
2023-01-31T15:18:38.496Z,100752.48
2023-01-31T15:21:08.899Z,100753.29
2023-01-31T15:23:42.775Z,100755.83
2023-01-31T15:26:11.587Z,100756.88
2023-01-31T15:28:43.667Z,100756.38
2023-01-31T15:31:42.357Z,100759.30
2023-01-31T15:34:20.924Z,100761.64
2023-01-31T15:37:16.838Z,100762.48
2023-01-31T15:40:03.155Z,100764.46
2023-01-31T15:42:34.536Z,100766.27
2023-01-31T15:45:30.503Z,100774.72
2023-01-31T15:48:15.960Z,100780.39
2023-01-31T15:50:59.420Z,100779.55
2023-01-31T15:53:31.417Z,100782.17
2023-01-31T15:56:03.491Z,100783.97
2023-01-31T15:58:35.069Z,100778.61
2023-01-31T16:01:04.223Z,100783.02
2023-01-31T16:03:39.629Z,100786.52
2023-01-31T16:06:22.508Z,100793.34
2023-01-31T16:08:54.018Z,100795.01
2023-01-31T16:11:33.692Z,100799.34
2023-01-31T16:14:05.716Z,100796.63
2023-01-31T16:16:36.247Z,100802.39
2023-01-31T16:19:06.313Z,100802.43
2023-01-31T16:21:45.599Z,100805.52
2023-01-31T16:24:19.087Z,100808.91
2023-01-31T16:26:59.368Z,100813.64
2023-01-31T16:29:40.141Z,100813.77
2023-01-31T16:32:40.398Z,100816.62
2023-01-31T16:35:19.494Z,100815.71
2023-01-31T16:38:04.188Z,100819.36
2023-01-31T16:40:36.908Z,100821.14
2023-01-31T16:43:19.415Z,100823.05
2023-01-31T16:45:58.829Z,100821.63
2023-01-31T16:48:36.951Z,100824.38
2023-01-31T16:51:25.814Z,100826.70
2023-01-31T16:54:16.601Z,100825.42
2023-01-31T16:56:47.855Z,100831.80
2023-01-31T16:59:35.061Z,100831.09
2023-01-31T17:02:03.452Z,100834.04
2023-01-31T17:04:32.242Z,100836.15
2023-01-31T17:07:05.649Z,100840.77
2023-01-31T17:09:35.680Z,100841.95
2023-01-31T17:12:06.471Z,100835.46
2023-01-31T17:14:35.610Z,100839.77
2023-01-31T17:17:04.664Z,100839.77
2023-01-31T17:19:35.445Z,100835.48
2023-01-31T17:22:05.465Z,100840.08
2023-01-31T17:24:33.642Z,100842.84
2023-01-31T17:27:02.237Z,100846.63
2023-01-31T17:29:30.917Z,100851.64
2023-01-31T17:32:01.257Z,100858.73
2023-01-31T17:34:29.642Z,100862.52
2023-01-31T17:36:58.018Z,100862.11
2023-01-31T17:39:26.207Z,100859.96
2023-01-31T17:41:54.381Z,100864.27
2023-01-31T17:44:23.478Z,100862.98
2023-01-31T17:46:52.068Z,100861.09
2023-01-31T17:49:20.454Z,100868.22
2023-01-31T17:51:49.156Z,100866.67
2023-01-31T17:54:17.431Z,100869.27
2023-01-31T17:56:46.335Z,100869.17
2023-01-31T17:59:25.313Z,100869.70
2023-01-31T18:01:55.504Z,100873.59
2023-01-31T18:04:24.071Z,100873.39
2023-01-31T18:06:52.449Z,100874.91
2023-01-31T18:09:21.153Z,100872.97
2023-01-31T18:11:49.735Z,100876.25
2023-01-31T18:14:18.319Z,100876.59
2023-01-31T18:16:46.603Z,100880.88
2023-01-31T18:19:15.087Z,100879.24
2023-01-31T18:21:53.442Z,100880.31
2023-01-31T18:24:23.620Z,100881.89
2023-01-31T18:26:52.998Z,100890.30
2023-01-31T18:29:24.080Z,100887.13
2023-01-31T18:31:57.981Z,100888.16
2023-01-31T18:34:26.389Z,100890.62
2023-01-31T18:36:54.864Z,100891.67
2023-01-31T18:39:23.856Z,100896.73
2023-01-31T18:41:53.557Z,100893.46
2023-01-31T18:44:22.066Z,100893.52
2023-01-31T18:46:50.530Z,100895.70
2023-01-31T18:49:20.275Z,100893.40
2023-01-31T18:51:49.912Z,100899.81
2023-01-31T18:54:21.734Z,100894.73
2023-01-31T18:56:50.425Z,100896.67
2023-01-31T18:59:18.854Z,100893.84
2023-01-31T19:01:47.435Z,100896.49
2023-01-31T19:04:16.025Z,100901.01
2023-01-31T19:06:46.316Z,100898.91
2023-01-31T19:09:14.710Z,100904.02
2023-01-31T19:11:43.630Z,100899.85
2023-01-31T19:14:13.747Z,100902.16
2023-01-31T19:16:43.351Z,100902.16
2023-01-31T19:19:11.996Z,100898.15
2023-01-31T19:21:41.148Z,100894.58
2023-01-31T19:24:13.930Z,100892.55
2023-01-31T19:26:43.282Z,100894.10
2023-01-31T19:29:15.855Z,100899.15
2023-01-31T19:31:45.233Z,100900.02
2023-01-31T19:34:13.595Z,100900.77
2023-01-31T19:36:44.787Z,100904.37
2023-01-31T19:39:13.437Z,100913.33
2023-01-31T19:41:42.752Z,100907.88
2023-01-31T19:44:11.933Z,100907.36
2023-01-31T19:46:40.243Z,100919.17
2023-01-31T19:49:08.708Z,100922.39
2023-01-31T19:51:38.113Z,100928.86
2023-01-31T19:54:07.114Z,100927.50
2023-01-31T19:56:35.494Z,100929.65
2023-01-31T19:59:06.253Z,100933.89
2023-01-31T20:01:34.929Z,100933.65
2023-01-31T20:04:03.822Z,100933.89
2023-01-31T20:06:35.390Z,100931.89
2023-01-31T20:09:07.571Z,100931.66
2023-01-31T20:11:36.953Z,100929.92
2023-01-31T20:14:06.668Z,100929.52
2023-01-31T20:16:35.135Z,100933.16
2023-01-31T20:19:04.463Z,100937.02
2023-01-31T20:21:32.642Z,100932.67
2023-01-31T20:24:00.825Z,100930.58
2023-01-31T20:26:30.029Z,100932.27
2023-01-31T20:28:58.722Z,100930.65
2023-01-31T20:31:27.253Z,100932.74
2023-01-31T20:33:55.795Z,100935.02
2023-01-31T20:36:24.287Z,100943.38
2023-01-31T20:38:52.697Z,100942.23
2023-01-31T20:41:22.788Z,100937.10
2023-01-31T20:43:51.595Z,100938.06
2023-01-31T20:46:20.234Z,100942.56
2023-01-31T20:48:48.764Z,100940.05
2023-01-31T20:51:17.149Z,100936.47
2023-01-31T20:53:45.592Z,100944.30
2023-01-31T20:56:14.432Z,100944.84
2023-01-31T20:58:44.151Z,100942.98
2023-01-31T21:01:12.984Z,100940.51
2023-01-31T21:03:41.833Z,100934.77
2023-01-31T21:06:10.317Z,100929.45
2023-01-31T21:08:40.064Z,100917.86
2023-01-31T21:11:10.869Z,100923.06
2023-01-31T21:13:40.296Z,100936.34
2023-01-31T21:16:11.493Z,100941.30
2023-01-31T21:18:40.519Z,100933.40
2023-01-31T21:21:14.081Z,100937.27
2023-01-31T21:23:42.584Z,100940.09
2023-01-31T21:26:12.049Z,100938.10
2023-01-31T21:28:40.417Z,100930.13
2023-01-31T21:31:12.754Z,100933.44
2023-01-31T21:33:41.404Z,100926.42
2023-01-31T21:36:11.830Z,100934.33
2023-01-31T21:38:40.569Z,100931.84
2023-01-31T21:41:29.146Z,100938.27
2023-01-31T21:43:57.740Z,100936.69
2023-01-31T21:46:27.075Z,100935.33
2023-01-31T21:48:55.801Z,100939.71
2023-01-31T21:51:25.448Z,100937.42
2023-01-31T21:53:54.749Z,100940.69
2023-01-31T21:56:26.354Z,100940.65
2023-01-31T21:58:56.649Z,100944.72
2023-01-31T22:01:27.629Z,100938.86
2023-01-31T22:03:57.012Z,100941.42
2023-01-31T22:06:31.254Z,100938.73
2023-01-31T22:09:01.579Z,100936.64
2023-01-31T22:11:33.378Z,100931.17
2023-01-31T22:14:04.549Z,100930.65
2023-01-31T22:16:33.346Z,100923.81
2023-01-31T22:19:01.983Z,100932.63
2023-01-31T22:21:32.701Z,100935.09
2023-01-31T22:24:03.018Z,100932.59
2023-01-31T22:26:34.708Z,100931.39
2023-01-31T22:29:05.693Z,100930.91
2023-01-31T22:31:34.287Z,100932.02
2023-01-31T22:34:04.733Z,100928.76
2023-01-31T22:36:33.720Z,100930.98
2023-01-31T22:39:02.515Z,100927.67
2023-01-31T22:41:32.038Z,100924.68
2023-01-31T22:44:00.711Z,100923.31
2023-01-31T22:46:30.077Z,100924.97
2023-01-31T22:48:58.509Z,100924.31
2023-01-31T22:51:28.851Z,100919.90
2023-01-31T22:53:58.651Z,100917.55
2023-01-31T22:56:29.828Z,100917.05
2023-01-31T22:59:00.840Z,100911.87
2023-01-31T23:01:32.819Z,100913.79
2023-01-31T23:04:03.966Z,100915.09
2023-01-31T23:06:32.552Z,100919.73
2023-01-31T23:09:00.735Z,100923.43
2023-01-31T23:11:29.216Z,100921.05
2023-01-31T23:13:58.475Z,100919.00
2023-01-31T23:16:45.997Z,100915.95
2023-01-31T23:19:15.514Z,100918.05
2023-01-31T23:21:44.724Z,100913.48
2023-01-31T23:24:17.137Z,100912.94
2023-01-31T23:26:45.464Z,100912.09
2023-01-31T23:29:13.998Z,100907.24
2023-01-31T23:31:42.665Z,100907.20
2023-01-31T23:34:11.083Z,100901.73
2023-01-31T23:36:39.261Z,100904.02
2023-01-31T23:39:07.458Z,100898.91
2023-01-31T23:41:35.822Z,100898.88
2023-01-31T23:44:04.924Z,100894.10
2023-01-31T23:46:33.378Z,100897.07
2023-01-31T23:49:01.591Z,100898.12
2023-01-31T23:51:31.478Z,100895.05
2023-01-31T23:54:00.195Z,100894.20
2023-01-31T23:56:28.682Z,100892.78
2023-01-31T23:58:57.271Z,100891.50
